Decoded Metar for ETNT (WITTMUNDHAFEN in GERMANY) (IATA:N/A) | Meteo·Mobile Aviation Weather
aviador You're here:

ETNT Decoded Metar

WITTMUNDHAFEN in GERMANY
Report Time2018-11-19 02:20:00
UTC Time2018-11-19 02:38:10
Flight Rules mvfr MVFR
Wind060° at 15 kt
W.Decomp.*RWY 08: 14.0 kt HW 5.4 kt LCW
W.Rank060° ranks 24
Current wind is above 060° avg. (6.8)
Visibility7000 m
Phenomena:N/A
Clouds:N/A
Expected CloudBase > 800 ft AGL from Temp-Dew spread
CeilingNone
Temp05°C (ISA -10)
Dew Point03°C (87% RH)
AAT-1.9°C
QNH1028 hPa
Density Alt-1,565 ft
Elevation39 ft
Report Wrong Elevation
Raw Report
METAR ETNT 190220Z AUTO 06015KT 7000 // ////// 05/03 Q1028 ///=

Extra information for ETNT:More info

Metar Taf Metar & Taf Last 4 Metars F.Rules Stats Wind Profile Meteogram Temp Stats Airport Information Weather charts Add Link Nearby VenuesMetar ALERT Operation Metar Decoded Social comments